sensor_id;sensor_type;location;lat;lon;timestamp;temperature;humidity
65972;SHT31;52726;48.852;9.152;2022-07-24T00:00:56;20.61;74.61
65972;SHT31;52726;48.852;9.152;2022-07-24T00:03:22;20.58;74.22
65972;SHT31;52726;48.852;9.152;2022-07-24T00:05:47;20.58;74.55
65972;SHT31;52726;48.852;9.152;2022-07-24T00:08:12;20.61;74.48
65972;SHT31;52726;48.852;9.152;2022-07-24T00:10:38;20.59;75.02
65972;SHT31;52726;48.852;9.152;2022-07-24T00:13:03;20.58;74.90
65972;SHT31;52726;48.852;9.152;2022-07-24T00:15:29;20.59;74.64
65972;SHT31;52726;48.852;9.152;2022-07-24T00:17:56;20.58;74.44
65972;SHT31;52726;48.852;9.152;2022-07-24T00:20:21;20.56;74.35
65972;SHT31;52726;48.852;9.152;2022-07-24T00:22:47;20.55;74.48
65972;SHT31;52726;48.852;9.152;2022-07-24T00:25:12;20.49;75.06
65972;SHT31;52726;48.852;9.152;2022-07-24T00:27:37;20.44;75.09
65972;SHT31;52726;48.852;9.152;2022-07-24T00:30:03;20.44;75.37
65972;SHT31;52726;48.852;9.152;2022-07-24T00:32:29;20.41;75.42
65972;SHT31;52726;48.852;9.152;2022-07-24T00:34:54;20.38;75.00
65972;SHT31;52726;48.852;9.152;2022-07-24T00:37:23;20.38;75.18
65972;SHT31;52726;48.852;9.152;2022-07-24T00:39:48;20.37;75.25
65972;SHT31;52726;48.852;9.152;2022-07-24T00:42:14;20.31;75.35
65972;SHT31;52726;48.852;9.152;2022-07-24T00:44:39;20.27;75.77
65972;SHT31;52726;48.852;9.152;2022-07-24T00:47:04;20.22;75.83
65972;SHT31;52726;48.852;9.152;2022-07-24T00:49:30;20.18;76.35
65972;SHT31;52726;48.852;9.152;2022-07-24T00:51:55;20.13;76.63
65972;SHT31;52726;48.852;9.152;2022-07-24T00:54:22;20.08;76.80
65972;SHT31;52726;48.852;9.152;2022-07-24T00:56:49;20.04;76.57
65972;SHT31;52726;48.852;9.152;2022-07-24T00:59:15;20.04;76.30
65972;SHT31;52726;48.852;9.152;2022-07-24T01:01:41;20.01;76.87
65972;SHT31;52726;48.852;9.152;2022-07-24T01:04:07;19.96;76.63
65972;SHT31;52726;48.852;9.152;2022-07-24T01:06:33;19.93;76.71
65972;SHT31;52726;48.852;9.152;2022-07-24T01:08:58;19.87;77.19
65972;SHT31;52726;48.852;9.152;2022-07-24T01:11:24;19.84;77.25
65972;SHT31;52726;48.852;9.152;2022-07-24T01:13:50;19.84;77.30
65972;SHT31;52726;48.852;9.152;2022-07-24T01:16:16;19.81;77.58
65972;SHT31;52726;48.852;9.152;2022-07-24T01:18:42;19.79;77.12
65972;SHT31;52726;48.852;9.152;2022-07-24T01:21:07;19.79;77.35
65972;SHT31;52726;48.852;9.152;2022-07-24T01:23:33;19.74;77.25
65972;SHT31;52726;48.852;9.152;2022-07-24T01:25:59;19.76;77.45
65972;SHT31;52726;48.852;9.152;2022-07-24T01:28:24;19.69;77.41
65972;SHT31;52726;48.852;9.152;2022-07-24T01:30:50;19.65;77.71
65972;SHT31;52726;48.852;9.152;2022-07-24T01:33:15;19.61;77.98
65972;SHT31;52726;48.852;9.152;2022-07-24T01:35:42;19.55;78.07
65972;SHT31;52726;48.852;9.152;2022-07-24T01:38:08;19.52;78.29
65972;SHT31;52726;48.852;9.152;2022-07-24T01:40:34;19.49;78.85
65972;SHT31;52726;48.852;9.152;2022-07-24T01:42:59;19.45;78.45
65972;SHT31;52726;48.852;9.152;2022-07-24T01:45:25;19.39;78.81
65972;SHT31;52726;48.852;9.152;2022-07-24T01:47:51;19.35;78.70
65972;SHT31;52726;48.852;9.152;2022-07-24T01:50:17;19.25;79.02
65972;SHT31;52726;48.852;9.152;2022-07-24T01:52:42;19.21;78.84
65972;SHT31;52726;48.852;9.152;2022-07-24T01:55:08;19.14;79.38
65972;SHT31;52726;48.852;9.152;2022-07-24T01:57:34;19.05;79.98
65972;SHT31;52726;48.852;9.152;2022-07-24T01:59:59;19.05;79.77
65972;SHT31;52726;48.852;9.152;2022-07-24T02:02:27;19.04;79.61
65972;SHT31;52726;48.852;9.152;2022-07-24T02:04:52;18.98;79.98
65972;SHT31;52726;48.852;9.152;2022-07-24T02:07:18;18.97;80.59
65972;SHT31;52726;48.852;9.152;2022-07-24T02:09:43;18.90;80.74
65972;SHT31;52726;48.852;9.152;2022-07-24T02:12:09;18.77;80.74
65972;SHT31;52726;48.852;9.152;2022-07-24T02:14:34;18.74;80.66
65972;SHT31;52726;48.852;9.152;2022-07-24T02:16:59;18.73;80.85
65972;SHT31;52726;48.852;9.152;2022-07-24T02:19:25;18.70;81.24
65972;SHT31;52726;48.852;9.152;2022-07-24T02:21:50;18.66;80.88
65972;SHT31;52726;48.852;9.152;2022-07-24T02:24:15;18.66;81.39
65972;SHT31;52726;48.852;9.152;2022-07-24T02:26:41;18.64;81.45
65972;SHT31;52726;48.852;9.152;2022-07-24T02:29:06;18.60;81.62
65972;SHT31;52726;48.852;9.152;2022-07-24T02:31:32;18.60;81.51
65972;SHT31;52726;48.852;9.152;2022-07-24T02:33:57;18.60;81.73
65972;SHT31;52726;48.852;9.152;2022-07-24T02:36:23;18.59;81.75
65972;SHT31;52726;48.852;9.152;2022-07-24T02:38:48;18.50;81.58
65972;SHT31;52726;48.852;9.152;2022-07-24T02:41:13;18.49;81.96
65972;SHT31;52726;48.852;9.152;2022-07-24T02:43:39;18.49;82.20
65972;SHT31;52726;48.852;9.152;2022-07-24T02:46:04;18.43;81.80
65972;SHT31;52726;48.852;9.152;2022-07-24T02:48:30;18.38;82.21
65972;SHT31;52726;48.852;9.152;2022-07-24T02:50:55;18.35;82.14
65972;SHT31;52726;48.852;9.152;2022-07-24T02:53:20;18.30;82.36
65972;SHT31;52726;48.852;9.152;2022-07-24T02:55:45;18.24;82.45
65972;SHT31;52726;48.852;9.152;2022-07-24T02:58:11;18.19;82.78
65972;SHT31;52726;48.852;9.152;2022-07-24T03:00:36;18.21;82.71
65972;SHT31;52726;48.852;9.152;2022-07-24T03:03:02;18.16;82.60
65972;SHT31;52726;48.852;9.152;2022-07-24T03:05:27;18.11;82.67
65972;SHT31;52726;48.852;9.152;2022-07-24T03:07:53;18.02;83.15
65972;SHT31;52726;48.852;9.152;2022-07-24T03:10:18;18.02;82.56
65972;SHT31;52726;48.852;9.152;2022-07-24T03:12:44;18.00;82.93
65972;SHT31;52726;48.852;9.152;2022-07-24T03:15:11;17.98;82.70
65972;SHT31;52726;48.852;9.152;2022-07-24T03:17:37;18.02;82.60
65972;SHT31;52726;48.852;9.152;2022-07-24T03:20:04;18.00;83.10
65972;SHT31;52726;48.852;9.152;2022-07-24T03:22:29;17.97;82.93
65972;SHT31;52726;48.852;9.152;2022-07-24T03:24:55;17.95;83.45
65972;SHT31;52726;48.852;9.152;2022-07-24T03:27:20;17.91;83.50
65972;SHT31;52726;48.852;9.152;2022-07-24T03:29:46;17.88;83.82
65972;SHT31;52726;48.852;9.152;2022-07-24T03:32:11;17.85;83.68
65972;SHT31;52726;48.852;9.152;2022-07-24T03:34:36;17.81;83.67
65972;SHT31;52726;48.852;9.152;2022-07-24T03:37:02;17.81;83.85
65972;SHT31;52726;48.852;9.152;2022-07-24T03:39:27;17.77;83.73
65972;SHT31;52726;48.852;9.152;2022-07-24T03:41:52;17.77;84.06
65972;SHT31;52726;48.852;9.152;2022-07-24T03:44:18;17.75;84.08
65972;SHT31;52726;48.852;9.152;2022-07-24T03:46:43;17.73;84.59
65972;SHT31;52726;48.852;9.152;2022-07-24T03:49:08;17.71;84.73
65972;SHT31;52726;48.852;9.152;2022-07-24T03:51:34;17.69;85.30
65972;SHT31;52726;48.852;9.152;2022-07-24T03:54:02;17.67;84.65
65972;SHT31;52726;48.852;9.152;2022-07-24T03:56:28;17.67;84.93
65972;SHT31;52726;48.852;9.152;2022-07-24T03:58:54;17.66;84.69
65972;SHT31;52726;48.852;9.152;2022-07-24T04:01:21;17.69;84.52
65972;SHT31;52726;48.852;9.152;2022-07-24T04:03:46;17.69;84.55
65972;SHT31;52726;48.852;9.152;2022-07-24T04:06:12;17.70;85.11
65972;SHT31;52726;48.852;9.152;2022-07-24T04:08:37;17.67;84.85
65972;SHT31;52726;48.852;9.152;2022-07-24T04:11:03;17.69;84.71
65972;SHT31;52726;48.852;9.152;2022-07-24T04:13:30;17.69;84.41
65972;SHT31;52726;48.852;9.152;2022-07-24T04:15:56;17.74;84.92
65972;SHT31;52726;48.852;9.152;2022-07-24T04:18:22;17.73;85.25
65972;SHT31;52726;48.852;9.152;2022-07-24T04:20:48;17.75;84.87
65972;SHT31;52726;48.852;9.152;2022-07-24T04:23:14;17.74;84.96
65972;SHT31;52726;48.852;9.152;2022-07-24T04:25:39;17.77;84.53
65972;SHT31;52726;48.852;9.152;2022-07-24T04:28:05;17.75;84.46
65972;SHT31;52726;48.852;9.152;2022-07-24T04:30:30;17.77;84.22
65972;SHT31;52726;48.852;9.152;2022-07-24T04:32:56;17.78;83.86
65972;SHT31;52726;48.852;9.152;2022-07-24T04:35:22;17.80;83.84
65972;SHT31;52726;48.852;9.152;2022-07-24T04:37:47;17.84;83.56
65972;SHT31;52726;48.852;9.152;2022-07-24T04:40:13;17.85;83.94
65972;SHT31;52726;48.852;9.152;2022-07-24T04:42:39;17.88;84.21
65972;SHT31;52726;48.852;9.152;2022-07-24T04:45:05;17.92;84.44
65972;SHT31;52726;48.852;9.152;2022-07-24T04:47:30;18.00;84.34
65972;SHT31;52726;48.852;9.152;2022-07-24T04:49:56;18.06;83.85
65972;SHT31;52726;48.852;9.152;2022-07-24T04:52:21;18.13;83.69
65972;SHT31;52726;48.852;9.152;2022-07-24T04:54:47;18.21;83.58
65972;SHT31;52726;48.852;9.152;2022-07-24T04:57:12;18.25;82.64
65972;SHT31;52726;48.852;9.152;2022-07-24T04:59:37;18.30;83.93
65972;SHT31;52726;48.852;9.152;2022-07-24T05:02:03;18.36;83.99
65972;SHT31;52726;48.852;9.152;2022-07-24T05:04:28;18.46;83.92
65972;SHT31;52726;48.852;9.152;2022-07-24T05:06:54;18.50;84.08
65972;SHT31;52726;48.852;9.152;2022-07-24T05:09:19;18.56;84.10
65972;SHT31;52726;48.852;9.152;2022-07-24T05:11:45;18.63;83.66
65972;SHT31;52726;48.852;9.152;2022-07-24T05:14:10;18.70;83.37
65972;SHT31;52726;48.852;9.152;2022-07-24T05:16:36;18.76;83.24
65972;SHT31;52726;48.852;9.152;2022-07-24T05:19:01;18.78;83.58
65972;SHT31;52726;48.852;9.152;2022-07-24T05:21:26;18.93;83.32
65972;SHT31;52726;48.852;9.152;2022-07-24T05:23:52;19.01;82.88
65972;SHT31;52726;48.852;9.152;2022-07-24T05:26:17;19.08;82.62
65972;SHT31;52726;48.852;9.152;2022-07-24T05:28:42;19.19;82.29
65972;SHT31;52726;48.852;9.152;2022-07-24T05:31:08;19.24;82.68
65972;SHT31;52726;48.852;9.152;2022-07-24T05:33:34;19.34;81.32
65972;SHT31;52726;48.852;9.152;2022-07-24T05:35:59;19.52;81.84
65972;SHT31;52726;48.852;9.152;2022-07-24T05:38:25;19.67;81.02
65972;SHT31;52726;48.852;9.152;2022-07-24T05:40:50;19.83;80.09
65972;SHT31;52726;48.852;9.152;2022-07-24T05:43:15;20.01;79.71
65972;SHT31;52726;48.852;9.152;2022-07-24T05:45:42;20.07;79.28
65972;SHT31;52726;48.852;9.152;2022-07-24T05:48:07;20.16;79.44
65972;SHT31;52726;48.852;9.152;2022-07-24T05:50:33;20.21;79.28
65972;SHT31;52726;48.852;9.152;2022-07-24T05:52:58;20.32;78.09
65972;SHT31;52726;48.852;9.152;2022-07-24T05:55:24;20.39;78.16
65972;SHT31;52726;48.852;9.152;2022-07-24T05:57:49;20.55;77.82
65972;SHT31;52726;48.852;9.152;2022-07-24T06:00:15;20.62;77.90
65972;SHT31;52726;48.852;9.152;2022-07-24T06:02:44;20.75;77.23
65972;SHT31;52726;48.852;9.152;2022-07-24T06:05:11;20.82;76.29
65972;SHT31;52726;48.852;9.152;2022-07-24T06:07:36;20.90;76.56
65972;SHT31;52726;48.852;9.152;2022-07-24T06:10:02;20.99;76.98
65972;SHT31;52726;48.852;9.152;2022-07-24T06:12:27;21.15;76.41
65972;SHT31;52726;48.852;9.152;2022-07-24T06:14:52;21.28;76.73
65972;SHT31;52726;48.852;9.152;2022-07-24T06:17:18;21.38;76.09
65972;SHT31;52726;48.852;9.152;2022-07-24T06:19:43;21.57;74.90
65972;SHT31;52726;48.852;9.152;2022-07-24T06:22:09;21.85;73.08
65972;SHT31;52726;48.852;9.152;2022-07-24T06:24:34;21.86;73.63
65972;SHT31;52726;48.852;9.152;2022-07-24T06:26:59;22.02;73.45
65972;SHT31;52726;48.852;9.152;2022-07-24T06:29:25;22.17;72.81
65972;SHT31;52726;48.852;9.152;2022-07-24T06:31:50;22.32;72.30
65972;SHT31;52726;48.852;9.152;2022-07-24T06:34:15;22.48;71.72
65972;SHT31;52726;48.852;9.152;2022-07-24T06:36:41;22.64;70.52
65972;SHT31;52726;48.852;9.152;2022-07-24T06:39:06;22.87;69.67
65972;SHT31;52726;48.852;9.152;2022-07-24T06:41:32;23.45;68.09
65972;SHT31;52726;48.852;9.152;2022-07-24T06:43:57;24.36;64.67
65972;SHT31;52726;48.852;9.152;2022-07-24T06:46:24;25.11;60.60
65972;SHT31;52726;48.852;9.152;2022-07-24T06:48:50;25.90;59.62
65972;SHT31;52726;48.852;9.152;2022-07-24T06:51:15;26.42;56.90
65972;SHT31;52726;48.852;9.152;2022-07-24T06:53:42;26.89;57.83
65972;SHT31;52726;48.852;9.152;2022-07-24T06:56:10;27.11;54.68
65972;SHT31;52726;48.852;9.152;2022-07-24T06:58:35;27.55;52.58
65972;SHT31;52726;48.852;9.152;2022-07-24T07:01:01;27.78;54.49
65972;SHT31;52726;48.852;9.152;2022-07-24T07:03:26;28.10;53.67
65972;SHT31;52726;48.852;9.152;2022-07-24T07:05:51;28.43;51.68
65972;SHT31;52726;48.852;9.152;2022-07-24T07:08:17;28.58;51.04
65972;SHT31;52726;48.852;9.152;2022-07-24T07:10:42;28.53;49.18
65972;SHT31;52726;48.852;9.152;2022-07-24T07:13:07;28.92;48.63
65972;SHT31;52726;48.852;9.152;2022-07-24T07:15:34;29.20;47.89
65972;SHT31;52726;48.852;9.152;2022-07-24T07:18:00;29.15;47.66
65972;SHT31;52726;48.852;9.152;2022-07-24T07:20:26;29.39;47.61
65972;SHT31;52726;48.852;9.152;2022-07-24T07:22:54;29.56;46.28
65972;SHT31;52726;48.852;9.152;2022-07-24T07:25:19;29.77;45.82
65972;SHT31;52726;48.852;9.152;2022-07-24T07:27:44;29.91;45.83
65972;SHT31;52726;48.852;9.152;2022-07-24T07:30:10;29.49;45.26
65972;SHT31;52726;48.852;9.152;2022-07-24T07:32:37;29.42;46.65
65972;SHT31;52726;48.852;9.152;2022-07-24T07:35:03;29.71;45.42
65972;SHT31;52726;48.852;9.152;2022-07-24T07:37:28;30.14;44.28
65972;SHT31;52726;48.852;9.152;2022-07-24T07:39:53;30.05;44.56
65972;SHT31;52726;48.852;9.152;2022-07-24T07:42:19;29.19;46.37
65972;SHT31;52726;48.852;9.152;2022-07-24T07:44:44;28.99;46.29
65972;SHT31;52726;48.852;9.152;2022-07-24T07:47:10;28.94;46.10
65972;SHT31;52726;48.852;9.152;2022-07-24T07:49:35;28.32;48.35
65972;SHT31;52726;48.852;9.152;2022-07-24T07:52:00;27.95;51.26
65972;SHT31;52726;48.852;9.152;2022-07-24T07:54:26;28.14;48.00
65972;SHT31;52726;48.852;9.152;2022-07-24T07:56:51;29.14;46.77
65972;SHT31;52726;48.852;9.152;2022-07-24T07:59:17;28.92;45.65
65972;SHT31;52726;48.852;9.152;2022-07-24T08:01:42;29.20;46.74
65972;SHT31;52726;48.852;9.152;2022-07-24T08:04:08;29.88;44.37
65972;SHT31;52726;48.852;9.152;2022-07-24T08:06:33;29.35;44.37
65972;SHT31;52726;48.852;9.152;2022-07-24T08:08:58;29.37;47.48
65972;SHT31;52726;48.852;9.152;2022-07-24T08:11:24;29.62;44.71
65972;SHT31;52726;48.852;9.152;2022-07-24T08:13:49;29.52;46.09
65972;SHT31;52726;48.852;9.152;2022-07-24T08:16:14;29.22;46.30
65972;SHT31;52726;48.852;9.152;2022-07-24T08:18:40;29.87;45.47
65972;SHT31;52726;48.852;9.152;2022-07-24T08:21:05;30.07;44.26
65972;SHT31;52726;48.852;9.152;2022-07-24T08:23:31;30.24;42.45
65972;SHT31;52726;48.852;9.152;2022-07-24T08:25:56;30.87;41.37
65972;SHT31;52726;48.852;9.152;2022-07-24T08:28:22;31.07;41.34
65972;SHT31;52726;48.852;9.152;2022-07-24T08:30:51;30.87;41.97
65972;SHT31;52726;48.852;9.152;2022-07-24T08:33:16;30.98;42.09
65972;SHT31;52726;48.852;9.152;2022-07-24T08:35:41;30.72;42.31
65972;SHT31;52726;48.852;9.152;2022-07-24T08:38:07;29.73;42.38
65972;SHT31;52726;48.852;9.152;2022-07-24T08:40:35;30.14;44.09
65972;SHT31;52726;48.852;9.152;2022-07-24T08:43:06;30.11;42.07
65972;SHT31;52726;48.852;9.152;2022-07-24T08:45:35;30.14;42.43
65972;SHT31;52726;48.852;9.152;2022-07-24T08:48:06;30.10;43.33
65972;SHT31;52726;48.852;9.152;2022-07-24T08:50:33;30.35;44.30
65972;SHT31;52726;48.852;9.152;2022-07-24T08:52:59;30.46;43.23
65972;SHT31;52726;48.852;9.152;2022-07-24T08:55:27;30.76;41.67
65972;SHT31;52726;48.852;9.152;2022-07-24T08:57:52;31.48;42.35
65972;SHT31;52726;48.852;9.152;2022-07-24T09:00:19;31.43;41.58
65972;SHT31;52726;48.852;9.152;2022-07-24T09:02:44;31.45;40.36
65972;SHT31;52726;48.852;9.152;2022-07-24T09:05:11;31.61;39.65
65972;SHT31;52726;48.852;9.152;2022-07-24T09:07:37;31.35;39.45
65972;SHT31;52726;48.852;9.152;2022-07-24T09:10:15;31.69;39.63
65972;SHT31;52726;48.852;9.152;2022-07-24T09:12:46;31.85;37.84
65972;SHT31;52726;48.852;9.152;2022-07-24T09:15:16;31.75;39.30
65972;SHT31;52726;48.852;9.152;2022-07-24T09:17:56;32.17;40.61
65972;SHT31;52726;48.852;9.152;2022-07-24T09:20:23;31.97;38.41
65972;SHT31;52726;48.852;9.152;2022-07-24T09:22:49;30.67;41.55
65972;SHT31;52726;48.852;9.152;2022-07-24T09:30:29;31.30;40.70
65972;SHT31;52726;48.852;9.152;2022-07-24T09:35:29;31.52;39.22
65972;SHT31;52726;48.852;9.152;2022-07-24T09:37:57;32.10;37.30
65972;SHT31;52726;48.852;9.152;2022-07-24T09:40:34;32.41;36.68
65972;SHT31;52726;48.852;9.152;2022-07-24T09:48:22;30.51;39.02
65972;SHT31;52726;48.852;9.152;2022-07-24T09:50:52;29.62;42.48
65972;SHT31;52726;48.852;9.152;2022-07-24T09:53:21;29.87;41.22
65972;SHT31;52726;48.852;9.152;2022-07-24T09:55:57;30.25;40.63
65972;SHT31;52726;48.852;9.152;2022-07-24T09:58:24;30.94;38.38
65972;SHT31;52726;48.852;9.152;2022-07-24T10:00:52;30.94;39.02
65972;SHT31;52726;48.852;9.152;2022-07-24T10:03:24;31.03;40.29
65972;SHT31;52726;48.852;9.152;2022-07-24T10:06:11;31.00;39.10
65972;SHT31;52726;48.852;9.152;2022-07-24T10:08:40;31.34;39.00
65972;SHT31;52726;48.852;9.152;2022-07-24T10:11:06;31.27;38.69
65972;SHT31;52726;48.852;9.152;2022-07-24T10:13:32;31.66;38.80
65972;SHT31;52726;48.852;9.152;2022-07-24T10:19:01;31.57;38.71
65972;SHT31;52726;48.852;9.152;2022-07-24T10:21:29;31.42;38.75
65972;SHT31;52726;48.852;9.152;2022-07-24T10:26:40;31.68;38.50
65972;SHT31;52726;48.852;9.152;2022-07-24T10:29:09;31.38;37.09
65972;SHT31;52726;48.852;9.152;2022-07-24T10:31:40;31.53;37.71
65972;SHT31;52726;48.852;9.152;2022-07-24T10:37:07;32.13;36.86
65972;SHT31;52726;48.852;9.152;2022-07-24T10:39:58;32.57;35.71
65972;SHT31;52726;48.852;9.152;2022-07-24T10:42:27;31.90;36.75
65972;SHT31;52726;48.852;9.152;2022-07-24T10:45:15;31.45;37.24
65972;SHT31;52726;48.852;9.152;2022-07-24T10:47:43;30.77;38.92
65972;SHT31;52726;48.852;9.152;2022-07-24T10:50:08;31.49;36.92
65972;SHT31;52726;48.852;9.152;2022-07-24T10:52:34;31.41;36.85
65972;SHT31;52726;48.852;9.152;2022-07-24T11:00:36;29.74;40.82
65972;SHT31;52726;48.852;9.152;2022-07-24T11:03:04;29.66;41.49
65972;SHT31;52726;48.852;9.152;2022-07-24T11:05:35;29.73;41.77
65972;SHT31;52726;48.852;9.152;2022-07-24T11:08:24;29.76;41.30
65972;SHT31;52726;48.852;9.152;2022-07-24T11:11:04;29.80;40.95
65972;SHT31;52726;48.852;9.152;2022-07-24T11:18:40;31.30;39.17
65972;SHT31;52726;48.852;9.152;2022-07-24T11:21:07;31.41;39.17
65972;SHT31;52726;48.852;9.152;2022-07-24T11:23:33;31.48;38.60
65972;SHT31;52726;48.852;9.152;2022-07-24T11:29:13;31.69;36.65
65972;SHT31;52726;48.852;9.152;2022-07-24T11:31:39;31.90;36.26
65972;SHT31;52726;48.852;9.152;2022-07-24T11:34:05;31.86;37.96
65972;SHT31;52726;48.852;9.152;2022-07-24T11:36:34;31.58;36.63
65972;SHT31;52726;48.852;9.152;2022-07-24T11:38:59;31.80;37.68
65972;SHT31;52726;48.852;9.152;2022-07-24T11:41:25;31.72;37.90
65972;SHT31;52726;48.852;9.152;2022-07-24T11:43:51;31.65;37.22
65972;SHT31;52726;48.852;9.152;2022-07-24T11:46:36;31.59;38.06
65972;SHT31;52726;48.852;9.152;2022-07-24T11:49:06;31.22;38.43
65972;SHT31;52726;48.852;9.152;2022-07-24T11:51:46;31.01;41.03
65972;SHT31;52726;48.852;9.152;2022-07-24T11:54:23;31.58;37.74
65972;SHT31;52726;48.852;9.152;2022-07-24T11:56:49;31.08;38.29
65972;SHT31;52726;48.852;9.152;2022-07-24T11:59:26;31.53;39.24
65972;SHT31;52726;48.852;9.152;2022-07-24T12:02:05;31.73;36.38
65972;SHT31;52726;48.852;9.152;2022-07-24T12:04:31;31.57;37.75
65972;SHT31;52726;48.852;9.152;2022-07-24T12:06:57;31.00;38.23
65972;SHT31;52726;48.852;9.152;2022-07-24T12:09:22;30.79;40.49
65972;SHT31;52726;48.852;9.152;2022-07-24T12:11:47;30.82;39.04
65972;SHT31;52726;48.852;9.152;2022-07-24T12:14:17;30.63;40.02
65972;SHT31;52726;48.852;9.152;2022-07-24T12:16:43;30.14;41.80
65972;SHT31;52726;48.852;9.152;2022-07-24T12:19:23;29.64;40.10
65972;SHT31;52726;48.852;9.152;2022-07-24T12:21:51;29.84;40.32
65972;SHT31;52726;48.852;9.152;2022-07-24T12:24:17;30.18;40.50
65972;SHT31;52726;48.852;9.152;2022-07-24T12:26:57;30.97;37.53
65972;SHT31;52726;48.852;9.152;2022-07-24T12:29:24;31.04;39.03
65972;SHT31;52726;48.852;9.152;2022-07-24T12:31:52;30.98;37.87
65972;SHT31;52726;48.852;9.152;2022-07-24T12:34:19;31.42;38.16
65972;SHT31;52726;48.852;9.152;2022-07-24T12:36:45;31.46;37.22
65972;SHT31;52726;48.852;9.152;2022-07-24T12:39:11;31.32;37.03
65972;SHT31;52726;48.852;9.152;2022-07-24T12:41:45;31.11;37.39
65972;SHT31;52726;48.852;9.152;2022-07-24T12:44:12;30.87;37.83
65972;SHT31;52726;48.852;9.152;2022-07-24T12:46:40;31.00;38.17
65972;SHT31;52726;48.852;9.152;2022-07-24T12:49:12;30.97;37.12
65972;SHT31;52726;48.852;9.152;2022-07-24T12:51:57;31.08;38.54
65972;SHT31;52726;48.852;9.152;2022-07-24T12:54:27;30.96;38.31
65972;SHT31;52726;48.852;9.152;2022-07-24T12:56:56;30.87;39.27
65972;SHT31;52726;48.852;9.152;2022-07-24T12:59:22;31.06;38.65
65972;SHT31;52726;48.852;9.152;2022-07-24T13:01:54;31.38;38.29
65972;SHT31;52726;48.852;9.152;2022-07-24T13:04:21;32.07;37.19
65972;SHT31;52726;48.852;9.152;2022-07-24T13:06:51;32.57;36.82
65972;SHT31;52726;48.852;9.152;2022-07-24T13:09:18;32.28;35.85
65972;SHT31;52726;48.852;9.152;2022-07-24T13:11:46;32.27;36.28
65972;SHT31;52726;48.852;9.152;2022-07-24T13:14:13;31.92;36.36
65972;SHT31;52726;48.852;9.152;2022-07-24T13:16:41;31.59;35.98
65972;SHT31;52726;48.852;9.152;2022-07-24T13:19:07;31.72;37.51
65972;SHT31;52726;48.852;9.152;2022-07-24T13:21:34;31.75;36.49
65972;SHT31;52726;48.852;9.152;2022-07-24T13:24:00;31.94;37.25
65972;SHT31;52726;48.852;9.152;2022-07-24T13:26:25;32.06;37.69
65972;SHT31;52726;48.852;9.152;2022-07-24T13:28:51;32.17;36.25
65972;SHT31;52726;48.852;9.152;2022-07-24T13:31:17;32.16;35.75
65972;SHT31;52726;48.852;9.152;2022-07-24T13:33:45;31.96;37.19
65972;SHT31;52726;48.852;9.152;2022-07-24T13:36:11;31.88;35.82
65972;SHT31;52726;48.852;9.152;2022-07-24T13:38:38;31.92;36.26
65972;SHT31;52726;48.852;9.152;2022-07-24T13:41:03;32.03;38.30
65972;SHT31;52726;48.852;9.152;2022-07-24T13:43:29;31.83;37.00
65972;SHT31;52726;48.852;9.152;2022-07-24T13:45:54;32.03;36.67
65972;SHT31;52726;48.852;9.152;2022-07-24T13:48:20;32.02;36.23
65972;SHT31;52726;48.852;9.152;2022-07-24T13:50:45;31.85;36.35
65972;SHT31;52726;48.852;9.152;2022-07-24T13:53:11;32.16;37.18
65972;SHT31;52726;48.852;9.152;2022-07-24T13:55:36;32.05;37.43
65972;SHT31;52726;48.852;9.152;2022-07-24T13:58:01;32.37;35.18
65972;SHT31;52726;48.852;9.152;2022-07-24T14:00:27;32.45;35.20
65972;SHT31;52726;48.852;9.152;2022-07-24T14:02:52;32.58;34.41
65972;SHT31;52726;48.852;9.152;2022-07-24T14:05:22;32.33;37.39
65972;SHT31;52726;48.852;9.152;2022-07-24T14:07:47;32.34;35.81
65972;SHT31;52726;48.852;9.152;2022-07-24T14:10:13;32.34;35.61
65972;SHT31;52726;48.852;9.152;2022-07-24T14:12:38;32.33;35.84
65972;SHT31;52726;48.852;9.152;2022-07-24T14:15:04;32.20;35.04
65972;SHT31;52726;48.852;9.152;2022-07-24T14:17:30;31.99;36.31
65972;SHT31;52726;48.852;9.152;2022-07-24T14:19:56;31.73;36.67
65972;SHT31;52726;48.852;9.152;2022-07-24T14:22:21;32.09;36.62
65972;SHT31;52726;48.852;9.152;2022-07-24T14:24:47;32.20;36.92
65972;SHT31;52726;48.852;9.152;2022-07-24T14:27:12;32.21;36.49
65972;SHT31;52726;48.852;9.152;2022-07-24T14:29:37;32.36;35.78
65972;SHT31;52726;48.852;9.152;2022-07-24T14:32:03;32.36;35.22
65972;SHT31;52726;48.852;9.152;2022-07-24T14:34:29;32.54;37.26
65972;SHT31;52726;48.852;9.152;2022-07-24T14:36:54;32.12;36.29
65972;SHT31;52726;48.852;9.152;2022-07-24T14:39:19;32.55;35.73
65972;SHT31;52726;48.852;9.152;2022-07-24T14:41:45;32.65;35.31
65972;SHT31;52726;48.852;9.152;2022-07-24T14:44:10;32.61;34.60
65972;SHT31;52726;48.852;9.152;2022-07-24T14:46:36;32.44;36.08
65972;SHT31;52726;48.852;9.152;2022-07-24T14:49:01;32.47;38.22
65972;SHT31;52726;48.852;9.152;2022-07-24T14:51:32;31.90;37.68
65972;SHT31;52726;48.852;9.152;2022-07-24T14:53:58;32.38;36.62
65972;SHT31;52726;48.852;9.152;2022-07-24T14:56:23;32.62;34.70
65972;SHT31;52726;48.852;9.152;2022-07-24T14:58:48;32.27;36.39
65972;SHT31;52726;48.852;9.152;2022-07-24T15:01:14;32.16;37.48
65972;SHT31;52726;48.852;9.152;2022-07-24T15:03:40;32.05;36.42
65972;SHT31;52726;48.852;9.152;2022-07-24T15:06:06;32.16;36.31
65972;SHT31;52726;48.852;9.152;2022-07-24T15:08:31;32.19;35.38
65972;SHT31;52726;48.852;9.152;2022-07-24T15:10:57;32.09;39.27
65972;SHT31;52726;48.852;9.152;2022-07-24T15:13:22;32.26;38.04
65972;SHT31;52726;48.852;9.152;2022-07-24T15:15:48;32.05;37.23
65972;SHT31;52726;48.852;9.152;2022-07-24T15:18:14;32.51;37.48
65972;SHT31;52726;48.852;9.152;2022-07-24T15:20:39;32.44;37.05
65972;SHT31;52726;48.852;9.152;2022-07-24T15:23:04;32.41;36.49
65972;SHT31;52726;48.852;9.152;2022-07-24T15:25:30;32.33;36.04
65972;SHT31;52726;48.852;9.152;2022-07-24T15:27:55;31.83;36.66
65972;SHT31;52726;48.852;9.152;2022-07-24T15:30:21;32.38;36.88
65972;SHT31;52726;48.852;9.152;2022-07-24T15:32:46;32.47;36.41
65972;SHT31;52726;48.852;9.152;2022-07-24T15:35:12;32.16;37.51
65972;SHT31;52726;48.852;9.152;2022-07-24T15:37:37;32.48;35.65
65972;SHT31;52726;48.852;9.152;2022-07-24T15:40:03;32.71;37.04
65972;SHT31;52726;48.852;9.152;2022-07-24T15:42:29;32.78;35.34
65972;SHT31;52726;48.852;9.152;2022-07-24T15:44:54;32.72;36.48
65972;SHT31;52726;48.852;9.152;2022-07-24T15:47:19;32.45;35.40
65972;SHT31;52726;48.852;9.152;2022-07-24T15:49:45;32.60;35.24
65972;SHT31;52726;48.852;9.152;2022-07-24T15:52:10;32.21;34.81
65972;SHT31;52726;48.852;9.152;2022-07-24T15:54:36;32.36;36.21
65972;SHT31;52726;48.852;9.152;2022-07-24T15:57:01;32.44;34.72
65972;SHT31;52726;48.852;9.152;2022-07-24T15:59:26;32.68;34.79
65972;SHT31;52726;48.852;9.152;2022-07-24T16:01:52;32.41;36.29